• Join FlightAware (Why Join?)
  • Login
  • US Flag 
01:44PM EDT


 

Airport Tracker/Info


-or-


 

Live Flight TrackerFlight Track Log ✈ MTN8305 ✈ 17-May-2013 ✈ KEWR - KBWI

Flight Track Log - Related Links

Times and Time Zones

All times are in EDT time to prevent confusion due to time zone crossing. See the MTN8305 flight status page for this flight to view local times or setup timezone preferences in your user account.

Time Position Orientation Groundspeed Altitude Reporting Facility
EDT Latitude Longitude Course Direction KTS MPH feet Rate Location/Type
04:02AM 40.7333 -74.1667 270° West 98 113 4,900  Level New York TRACON
04:03AM 40.7167 -74.2000 237° Southwest 102 117 5,400 540 Climbing New York TRACON
04:04AM 40.7167 -74.2500 270° West 108 124 6,000 300 Climbing New York TRACON
04:05AM 40.7167 -74.2833 270° West 138 159 6,000  Level New York TRACON
04:06AM 40.7000 -74.3333 246° West 142 163 6,000  Level New York TRACON
04:07AM 40.6333 -74.4437 270° West  Level FlightAware Approximate
04:07AM 40.6833 -74.3833 246° West 138 159 6,000  Level New York TRACON
04:08AM 40.6833 -74.4333 270° West 138 159 6,000  Level New York TRACON
04:09AM 40.6667 -74.4833 246° West 137 158 6,000  Level New York TRACON
04:09AM 40.6667 -74.5167 270° West 134 154 6,000  Level New York TRACON
04:11AM 40.6500 -74.5667 246° West 136 157 6,000  Level New York TRACON
04:12AM 40.6333 -74.6333 252° West 136 157 6,000  Level New York TRACON
04:13AM 40.6333 -74.6833 270° West 137 158 6,000  Level New York TRACON
04:14AM 40.6167 -74.7333 246° West 130 150 6,000  Level New York TRACON
04:15AM 40.6167 -74.7667 270° West 129 148 6,000  Level New York TRACON
04:16AM 40.6000 -74.8167 246° West 133 153 6,000  Level New York TRACON
04:17AM 40.6000 -74.8667 270° West 135 155 6,000  Level New York TRACON
04:18AM 40.5833 -74.9167 246° West 130 150 6,000  Level New York TRACON
04:19AM 40.5667 -74.9667 246° West 131 151 6,000  Level New York TRACON
04:20AM 40.5667 -75.0000 270° West 131 151 6,000  Level New York TRACON
04:21AM 40.5500 -75.0500 246° West 121 139 6,000  Level New York TRACON
04:22AM 40.5333 -75.0833 237° Southwest 150 173 6,000  Level New York TRACON
04:23AM 40.5000 -75.1167 217° Southwest 156 180 6,000  Level New York TRACON
04:24AM 40.4667 -75.1500 217° Southwest 158 182 6,000 -120 Level New York TRACON
04:24AM 40.4500 -75.1667 217° Southwest 156 180 5,900 -120 Descending Philadelphia TRACON
04:25AM 40.4000 -75.2000 207° Southwest 158 182 5,900  Level Philadelphia TRACON
04:26AM 40.3667 -75.2333 217° Southwest 153 176 5,900  Level Philadelphia TRACON
04:27AM 40.3333 -75.2667 217° Southwest 156 180 5,900  Level Philadelphia TRACON
04:28AM 40.3000 -75.3000 217° Southwest 158 182 5,900  Level Philadelphia TRACON
04:29AM 40.2667 -75.3333 217° Southwest 155 178 5,900  Level Philadelphia TRACON
04:30AM 40.2333 -75.3667 217° Southwest 153 176 5,900  Level Philadelphia TRACON
04:31AM 40.2000 -75.4167 229° Southwest 143 165 5,900  Level Philadelphia TRACON
04:32AM 40.1833 -75.4500 237° Southwest 146 168 5,900  Level Philadelphia TRACON
04:33AM 40.1500 -75.4833 217° Southwest 151 174 5,900  Level Philadelphia TRACON
04:34AM 40.1167 -75.5167 217° Southwest 152 175 5,900  Level Philadelphia TRACON
04:35AM 40.0833 -75.5667 229° Southwest 147 169 5,900  Level Philadelphia TRACON
04:36AM 40.0500 -75.6000 217° Southwest 152 175 5,900  Level Philadelphia TRACON
04:37AM 40.0167 -75.6333 217° Southwest 154 177 5,900  Level Philadelphia TRACON
04:38AM 40.0000 -75.6667 237° Southwest 153 176 5,900  Level Philadelphia TRACON
04:39AM 39.9667 -75.7167 229° Southwest 154 177 5,900  Level Philadelphia TRACON
04:40AM 39.9333 -75.7500 217° Southwest 149 171 5,900  Level Philadelphia TRACON
04:41AM 39.9000 -75.7833 217° Southwest 151 174 5,900  Level Philadelphia TRACON
04:42AM 39.8667 -75.8167 218° Southwest 154 177 5,900  Level Philadelphia TRACON
04:43AM 39.8500 -75.8667 247° West 153 176 5,900  Level Philadelphia TRACON
04:44AM 39.8167 -75.9000 218° Southwest 153 176 5,900  Level Philadelphia TRACON
04:46AM 39.7667 -75.9500 218° Southwest 159 183 6,000  Climbing Potomac TRACON
04:47AM 39.7333 -76.0000 229° Southwest 157 181 6,000  Level Potomac TRACON
04:48AM 39.7000 -76.0333 218° Southwest 157 181 6,000  Level Potomac TRACON
04:49AM 39.6667 -76.0667 218° Southwest 160 184 6,000  Level Potomac TRACON
04:50AM 39.6333 -76.1167 229° Southwest 160 184 6,000  Level Potomac TRACON
04:51AM 39.6000 -76.1500 218° Southwest 159 183 6,000  Level Potomac TRACON
04:52AM 39.5667 -76.2000 229° Southwest 156 180 6,000  Level Potomac TRACON
04:53AM 39.5333 -76.2333 218° Southwest 156 180 6,000 -60 Level Potomac TRACON
04:54AM 39.5000 -76.2667 218° Southwest 160 184 5,900 -240 Descending Potomac TRACON
04:55AM 39.4667 -76.3167 229° Southwest 168 193 5,600 -300 Descending Potomac TRACON
04:56AM 39.4333 -76.3500 218° Southwest 169 194 5,300 -360 Descending Potomac TRACON
04:57AM 39.4000 -76.4000 229° Southwest 170 196 4,900 -480 Descending Potomac TRACON
04:58AM 39.3667 -76.4333 218° Southwest 178 205 4,400 -540 Descending Potomac TRACON
04:59AM 39.3333 -76.4833 229° Southwest 180 207 3,900 -540 Descending Potomac TRACON
05:00AM 39.2833 -76.5333 218° Southwest 184 212 3,400 -600 Descending Potomac TRACON
05:01AM 39.2500 -76.5667 218° Southwest 189 217 2,800 -720 Descending Potomac TRACON
05:02AM 39.2000 -76.6000 207° Southwest 190 219 2,000 -840 Descending Potomac TRACON